ETNL/RLG METAR and TAF weather

Enter ICAO airport designator
Station Type Date Time Source
ETNL METAR 2019/12/13 13:52 UTC NOAA

ETNL 131352Z 12014KT 5000 BR BKN007 01/M01 Q0982 GRN


Station Type Date Time Source
ETNL Decoded METAR 2019/12/13 13:52 UTC NOAA

Laage, Germany (ETNL) 53-55N 012-17E 46M
Dec 13, 2019 - 08:52 AM EST / 2019.12.13 1352 UTC
Wind: from the ESE (120 degrees) at 16 MPH (14 KT):0
Visibility: 3 mile(s):0
Sky conditions: mostly cloudy
Weather: mist
Temperature: 33 F (1 C)
Windchill: 23 F (-5 C):1
Dew Point: 30 F (-1 C)
Relative Humidity: 86%
Pressure (altimeter): 29.00 in. Hg (0982 hPa)
ob: ETNL 131352Z 12014KT 5000 BR BKN007 01/M01 Q0982 GRN
cycle: 14

Station Type Date Time Source
ETNL TAF 2019/06/10 05:34 UTC NOAA

TAF ETNL 100400Z 1005/1018 06008KT 9999 NSW BKN100
TEMPO 1005/1018 07012KT 6000 -RA BKN050 OVC100 PROB30 1015/1018 VRB15G30KT 3000 TSRA BKN030CB BY ETGL

Example: see airport list